createdAt,value
2022-12-29T00:01:44.299Z,7.47
2022-12-29T00:04:15.273Z,7.39
2022-12-29T00:06:43.935Z,7.24
2022-12-29T00:09:16.592Z,7.26
2022-12-29T00:11:44.546Z,7.21
2022-12-29T00:14:31.490Z,7.19
2022-12-29T00:16:58.955Z,7.18
2022-12-29T00:19:44.961Z,7.17
2022-12-29T00:22:32.516Z,7.29
2022-12-29T00:25:19.377Z,7.37
2022-12-29T00:28:07.233Z,7.43
2022-12-29T00:30:54.951Z,7.45
2022-12-29T00:33:44.526Z,7.42
2022-12-29T00:36:29.031Z,7.41
2022-12-29T00:39:27.294Z,7.31
2022-12-29T00:42:12.799Z,7.37
2022-12-29T00:44:40.219Z,7.40
2022-12-29T00:47:07.579Z,7.40
2022-12-29T00:49:35.031Z,7.41
2022-12-29T00:52:05.904Z,7.38
2022-12-29T00:54:38.537Z,7.43
2022-12-29T00:57:07.940Z,7.45
2022-12-29T01:00:04.011Z,7.44
2022-12-29T01:02:31.661Z,7.44
2022-12-29T01:04:59.134Z,7.41
2022-12-29T01:07:26.510Z,7.42
2022-12-29T01:10:12.015Z,7.42
2022-12-29T01:12:41.963Z,7.34
2022-12-29T01:15:15.662Z,7.18
2022-12-29T01:17:43.597Z,7.35
2022-12-29T01:20:11.997Z,7.39
2022-12-29T01:22:40.036Z,7.46
2022-12-29T01:25:07.858Z,7.41
2022-12-29T01:27:35.873Z,7.28
2022-12-29T01:30:03.560Z,7.28
2022-12-29T01:32:33.013Z,7.32
2022-12-29T01:35:00.439Z,7.23
2022-12-29T01:37:27.829Z,7.13
2022-12-29T01:39:55.262Z,7.26
2022-12-29T01:42:26.194Z,7.33
2022-12-29T01:44:58.957Z,7.29
2022-12-29T01:47:45.112Z,7.22
2022-12-29T01:50:21.386Z,7.28
2022-12-29T01:52:57.384Z,7.22
2022-12-29T01:55:27.272Z,7.32
2022-12-29T01:57:58.773Z,7.37
2022-12-29T02:00:26.202Z,7.37
2022-12-29T02:02:54.607Z,7.35
2022-12-29T02:05:40.110Z,7.31
2022-12-29T02:08:09.319Z,7.28
2022-12-29T02:10:37.463Z,7.29
2022-12-29T02:13:04.965Z,7.26
2022-12-29T02:16:02.104Z,7.25
2022-12-29T02:19:00.250Z,7.36
2022-12-29T02:21:52.315Z,7.39
2022-12-29T02:24:36.788Z,7.39
2022-12-29T02:27:13.003Z,7.35
2022-12-29T02:29:55.562Z,7.43
2022-12-29T02:32:31.881Z,7.45
2022-12-29T02:35:19.587Z,7.28
2022-12-29T02:38:08.306Z,7.46
2022-12-29T02:40:44.548Z,7.51
2022-12-29T02:43:25.657Z,7.57
2022-12-29T02:45:53.100Z,7.59
2022-12-29T02:48:39.806Z,7.58
2022-12-29T02:51:41.717Z,7.53
2022-12-29T02:54:27.673Z,7.60
2022-12-29T02:56:55.050Z,7.59
2022-12-29T02:59:23.723Z,7.50
2022-12-29T03:02:18.529Z,7.54
2022-12-29T03:05:00.172Z,7.43
2022-12-29T03:07:50.366Z,7.29
2022-12-29T03:10:42.042Z,7.39
2022-12-29T03:13:40.089Z,7.34
2022-12-29T03:16:20.099Z,7.32
2022-12-29T03:18:56.414Z,7.25
2022-12-29T03:21:57.240Z,7.32
2022-12-29T03:24:29.804Z,7.14
2022-12-29T03:26:59.301Z,7.09
2022-12-29T03:29:32.005Z,6.96
2022-12-29T03:32:01.107Z,6.97
2022-12-29T03:34:29.767Z,6.88
2022-12-29T03:37:03.956Z,6.88
2022-12-29T03:39:32.031Z,6.93
2022-12-29T03:42:05.873Z,7.01
2022-12-29T03:44:38.700Z,7.01
2022-12-29T03:47:06.708Z,7.03
2022-12-29T03:49:35.443Z,7.08
2022-12-29T03:52:05.466Z,7.03
2022-12-29T03:54:37.387Z,7.06
2022-12-29T03:57:04.888Z,7.06
2022-12-29T03:59:44.392Z,6.99
2022-12-29T04:02:12.762Z,7.09
2022-12-29T04:04:41.752Z,7.02
2022-12-29T04:07:09.167Z,7.00
2022-12-29T04:09:36.771Z,7.04
2022-12-29T04:12:04.716Z,7.11
2022-12-29T04:14:34.917Z,7.09
2022-12-29T04:17:03.008Z,7.16
2022-12-29T04:19:31.049Z,7.08
2022-12-29T04:21:58.524Z,7.14
2022-12-29T04:24:25.917Z,7.22
2022-12-29T04:26:53.334Z,7.08
2022-12-29T04:29:31.531Z,7.17
2022-12-29T04:32:19.130Z,7.20
2022-12-29T04:34:50.095Z,7.22
2022-12-29T04:37:18.540Z,7.07
2022-12-29T04:39:46.073Z,7.03
2022-12-29T04:42:13.505Z,7.09
2022-12-29T04:44:45.050Z,7.12
2022-12-29T04:47:36.085Z,7.22
2022-12-29T04:50:35.602Z,7.22
2022-12-29T04:53:15.560Z,7.23
2022-12-29T04:55:44.344Z,7.18
2022-12-29T04:58:14.052Z,7.20
2022-12-29T05:00:45.061Z,7.10
2022-12-29T05:03:12.959Z,7.15
2022-12-29T05:05:42.743Z,7.07
2022-12-29T05:08:10.200Z,6.91
2022-12-29T05:10:38.115Z,6.97
2022-12-29T05:13:11.256Z,6.94
2022-12-29T05:15:39.402Z,7.05
2022-12-29T05:18:06.818Z,7.10
2022-12-29T05:20:35.034Z,7.10
2022-12-29T05:23:03.526Z,6.91
2022-12-29T05:25:31.036Z,6.92
2022-12-29T05:28:12.579Z,6.87
2022-12-29T05:31:00.260Z,6.94
2022-12-29T05:33:28.388Z,6.91
2022-12-29T05:35:55.885Z,6.83
2022-12-29T05:38:24.633Z,6.86
2022-12-29T05:40:52.049Z,6.77
2022-12-29T05:43:42.317Z,6.80
2022-12-29T05:46:30.807Z,6.88
2022-12-29T05:49:20.098Z,6.90
2022-12-29T05:51:59.993Z,6.88
2022-12-29T05:54:29.546Z,6.85
2022-12-29T05:56:57.358Z,6.86
2022-12-29T05:59:24.828Z,6.83
2022-12-29T06:01:54.031Z,6.74
2022-12-29T06:04:21.598Z,6.82
2022-12-29T06:06:49.125Z,6.83
2022-12-29T06:09:31.313Z,6.77
2022-12-29T06:11:58.713Z,6.88
2022-12-29T06:14:26.791Z,6.81
2022-12-29T06:16:54.284Z,6.85
2022-12-29T06:19:22.947Z,6.91
2022-12-29T06:21:50.374Z,6.83
2022-12-29T06:24:17.793Z,6.77
2022-12-29T06:26:45.162Z,6.84
2022-12-29T06:29:14.345Z,6.83
2022-12-29T06:31:42.215Z,6.86
2022-12-29T06:34:10.010Z,6.90
2022-12-29T06:36:37.810Z,6.92
2022-12-29T06:39:06.835Z,6.97
2022-12-29T06:41:35.096Z,6.94
2022-12-29T06:44:28.719Z,6.91
2022-12-29T06:46:59.125Z,6.85
2022-12-29T06:49:26.428Z,6.92
2022-12-29T06:51:53.782Z,6.92
2022-12-29T06:54:21.120Z,6.92
2022-12-29T06:56:48.440Z,6.94
2022-12-29T06:59:15.737Z,6.91
2022-12-29T07:01:43.321Z,6.87
2022-12-29T07:04:10.687Z,6.86
2022-12-29T07:06:38.040Z,6.84
2022-12-29T07:09:05.352Z,6.92
2022-12-29T07:11:32.697Z,6.92
2022-12-29T07:14:02.553Z,6.93
2022-12-29T07:16:31.210Z,6.82
2022-12-29T07:19:00.547Z,6.93
2022-12-29T07:21:27.977Z,6.85
2022-12-29T07:23:55.821Z,6.77
2022-12-29T07:26:23.322Z,6.75
2022-12-29T07:28:50.774Z,6.92
2022-12-29T07:31:20.921Z,6.98
2022-12-29T07:33:49.080Z,7.05
2022-12-29T07:36:18.345Z,7.05
2022-12-29T07:38:45.825Z,6.98
2022-12-29T07:41:13.456Z,7.00
2022-12-29T07:43:40.837Z,6.94
2022-12-29T07:46:56.410Z,7.01
2022-12-29T07:49:13.995Z,6.96
2022-12-29T07:51:41.440Z,7.03
2022-12-29T07:54:10.182Z,6.99
2022-12-29T07:56:37.553Z,7.15
2022-12-29T07:59:05.325Z,7.13
2022-12-29T08:01:32.877Z,7.14
2022-12-29T08:04:00.427Z,7.28
2022-12-29T08:06:27.919Z,7.38
2022-12-29T08:08:57.235Z,7.45
2022-12-29T08:11:25.203Z,7.33
2022-12-29T08:13:52.695Z,7.44
2022-12-29T08:16:20.292Z,7.48
2022-12-29T08:18:47.793Z,7.45
2022-12-29T08:21:16.420Z,7.50
2022-12-29T08:23:43.901Z,7.48
2022-12-29T08:26:12.119Z,7.48
2022-12-29T08:28:39.948Z,7.32
2022-12-29T08:31:07.516Z,7.35
2022-12-29T08:33:34.999Z,7.34
2022-12-29T08:36:04.275Z,7.36
2022-12-29T08:38:31.742Z,7.29
2022-12-29T08:41:01.966Z,7.35
2022-12-29T08:43:29.858Z,7.40
2022-12-29T08:45:59.440Z,7.33
2022-12-29T08:48:27.764Z,7.18
2022-12-29T08:50:55.077Z,7.28
2022-12-29T08:53:22.432Z,7.21
2022-12-29T08:56:04.146Z,7.31
2022-12-29T08:58:38.996Z,7.36
2022-12-29T09:01:06.624Z,7.30
2022-12-29T09:06:22.286Z,7.44
2022-12-29T09:08:49.726Z,7.38
2022-12-29T09:11:20.136Z,7.30
2022-12-29T09:13:48.035Z,7.30
2022-12-29T09:16:16.717Z,7.34
2022-12-29T09:18:44.920Z,7.39
2022-12-29T09:21:13.346Z,7.46
2022-12-29T09:23:41.588Z,7.66
2022-12-29T09:26:09.608Z,7.72
2022-12-29T09:28:37.772Z,7.75
2022-12-29T09:31:05.466Z,7.69
2022-12-29T09:33:34.825Z,7.71
2022-12-29T09:36:02.899Z,7.83
2022-12-29T09:38:30.469Z,7.78
2022-12-29T09:41:07.896Z,7.78
2022-12-29T09:43:55.950Z,7.79
2022-12-29T09:46:29.314Z,7.87
2022-12-29T09:49:27.852Z,7.97
2022-12-29T09:52:00.816Z,8.15
2022-12-29T09:54:48.203Z,8.27
2022-12-29T09:57:25.560Z,8.27
2022-12-29T09:59:59.176Z,8.24
2022-12-29T10:02:45.074Z,8.18
2022-12-29T10:05:26.010Z,8.30
2022-12-29T10:08:12.490Z,8.25
2022-12-29T10:11:04.331Z,8.37
2022-12-29T10:13:57.728Z,8.39
2022-12-29T10:16:53.837Z,8.45
2022-12-29T10:19:39.966Z,8.66
2022-12-29T10:22:07.228Z,8.76
2022-12-29T10:24:38.799Z,8.75
2022-12-29T10:27:13.177Z,8.84
2022-12-29T10:29:53.236Z,8.86
2022-12-29T10:32:49.628Z,9.08
2022-12-29T10:35:26.272Z,8.91
2022-12-29T10:38:05.231Z,8.95
2022-12-29T10:40:46.373Z,8.73
2022-12-29T10:43:44.150Z,8.73
2022-12-29T10:46:19.351Z,8.87
2022-12-29T10:48:48.568Z,8.93
2022-12-29T10:51:23.638Z,8.91
2022-12-29T10:54:06.173Z,8.95
2022-12-29T10:56:40.202Z,8.92
2022-12-29T10:59:17.107Z,8.87
2022-12-29T11:01:59.861Z,8.99
2022-12-29T11:04:31.944Z,9.02
2022-12-29T11:07:00.490Z,9.05
2022-12-29T11:09:42.449Z,9.02
2022-12-29T11:12:31.673Z,9.16
2022-12-29T11:15:15.000Z,9.20
2022-12-29T11:17:54.894Z,9.21
2022-12-29T11:20:34.694Z,9.21
2022-12-29T11:23:04.443Z,9.42
2022-12-29T11:25:32.414Z,9.46
2022-12-29T11:28:15.016Z,9.45
2022-12-29T11:30:42.817Z,9.28
2022-12-29T11:33:10.769Z,9.31
2022-12-29T11:35:42.148Z,9.30
2022-12-29T11:38:41.419Z,9.30
2022-12-29T11:41:14.621Z,9.33
2022-12-29T11:43:44.464Z,9.41
2022-12-29T11:46:29.014Z,9.37
2022-12-29T11:49:00.563Z,9.29
2022-12-29T11:51:29.671Z,9.34
2022-12-29T11:54:03.743Z,9.31
2022-12-29T11:56:40.781Z,9.31
2022-12-29T11:59:35.143Z,9.26
2022-12-29T12:02:17.311Z,9.12
2022-12-29T12:04:45.009Z,9.17
2022-12-29T12:07:18.096Z,9.16
2022-12-29T12:09:52.864Z,9.14
2022-12-29T12:12:38.717Z,9.14
2022-12-29T12:15:06.948Z,9.06
2022-12-29T12:18:12.615Z,9.20
2022-12-29T12:20:46.562Z,9.32
2022-12-29T12:23:32.797Z,9.25
2022-12-29T12:26:20.152Z,9.13
2022-12-29T12:29:12.643Z,9.15
2022-12-29T12:31:49.000Z,9.12
2022-12-29T12:34:33.305Z,9.06
2022-12-29T12:37:16.724Z,9.03
2022-12-29T12:40:08.921Z,9.06
2022-12-29T12:43:10.115Z,9.13
2022-12-29T12:45:50.502Z,9.11
2022-12-29T12:48:34.635Z,9.09
2022-12-29T12:51:23.726Z,9.07
2022-12-29T12:54:13.319Z,9.14
2022-12-29T12:57:06.899Z,9.08
2022-12-29T13:00:07.962Z,9.03
2022-12-29T13:02:52.040Z,9.05
2022-12-29T13:05:27.051Z,8.94
2022-12-29T13:08:24.910Z,8.97
2022-12-29T13:11:19.226Z,9.03
2022-12-29T13:14:14.569Z,8.91
2022-12-29T13:17:27.003Z,9.09
2022-12-29T13:20:25.718Z,8.97
2022-12-29T13:23:06.923Z,8.78
2022-12-29T13:25:52.435Z,8.68
2022-12-29T13:28:30.186Z,8.67
2022-12-29T13:31:19.519Z,8.65
2022-12-29T13:34:14.627Z,8.63
2022-12-29T13:36:52.730Z,8.65
2022-12-29T13:39:34.179Z,8.77
2022-12-29T13:42:03.739Z,8.83
2022-12-29T13:45:00.410Z,8.86
2022-12-29T13:47:42.523Z,8.74
2022-12-29T13:50:22.342Z,8.73
2022-12-29T13:53:03.871Z,8.67
2022-12-29T13:55:55.915Z,8.78
2022-12-29T13:58:29.120Z,8.64
2022-12-29T14:01:04.799Z,8.66
2022-12-29T14:03:44.697Z,8.71
2022-12-29T14:06:27.412Z,8.68
2022-12-29T14:09:00.840Z,8.70
2022-12-29T14:11:37.697Z,8.75
2022-12-29T14:14:22.261Z,8.63
2022-12-29T14:16:50.457Z,8.70
2022-12-29T14:19:25.014Z,8.78
2022-12-29T14:22:00.736Z,8.64
2022-12-29T14:24:34.556Z,8.75
2022-12-29T14:27:22.356Z,8.65
2022-12-29T14:29:51.971Z,8.78
2022-12-29T14:32:24.641Z,8.74
2022-12-29T14:34:58.794Z,8.86
2022-12-29T14:37:37.297Z,8.78
2022-12-29T14:40:04.660Z,8.77
2022-12-29T14:42:33.208Z,8.75
2022-12-29T14:45:15.938Z,8.73
2022-12-29T14:47:48.914Z,8.74
2022-12-29T14:50:43.743Z,8.81
2022-12-29T14:53:44.048Z,8.82
2022-12-29T14:56:14.041Z,8.76
2022-12-29T14:58:58.491Z,8.77
2022-12-29T15:01:33.525Z,8.82
2022-12-29T15:04:15.529Z,8.83
2022-12-29T15:06:45.832Z,8.84
2022-12-29T15:09:31.369Z,8.79
2022-12-29T15:12:22.403Z,8.73
2022-12-29T15:14:52.859Z,8.82
2022-12-29T15:17:35.447Z,8.86
2022-12-29T15:20:18.125Z,8.82
2022-12-29T15:22:46.508Z,8.78
2022-12-29T15:25:17.546Z,8.71
2022-12-29T15:28:00.561Z,8.73
2022-12-29T15:30:28.050Z,8.80
2022-12-29T15:32:55.706Z,8.77
2022-12-29T15:35:32.273Z,8.79
2022-12-29T15:38:00.664Z,8.83
2022-12-29T15:40:32.169Z,8.81
2022-12-29T15:43:33.894Z,8.85
2022-12-29T15:46:03.312Z,8.92
2022-12-29T15:48:32.177Z,8.98
2022-12-29T15:51:00.613Z,8.85
2022-12-29T15:53:33.555Z,8.85
2022-12-29T15:56:09.711Z,8.88
2022-12-29T15:58:51.847Z,8.87
2022-12-29T16:01:56.054Z,8.80
2022-12-29T16:04:26.789Z,8.85
2022-12-29T16:07:05.397Z,8.98
2022-12-29T16:09:36.760Z,8.99
2022-12-29T16:12:16.777Z,8.99
2022-12-29T16:14:50.041Z,8.90
2022-12-29T16:17:27.844Z,8.79
2022-12-29T16:20:02.661Z,8.67
2022-12-29T16:22:34.655Z,8.73
2022-12-29T16:25:16.571Z,8.73
2022-12-29T16:27:45.020Z,8.73
2022-12-29T16:30:26.554Z,8.71
2022-12-29T16:33:04.014Z,8.67
2022-12-29T16:35:47.413Z,8.68
2022-12-29T16:38:14.705Z,8.69
2022-12-29T16:40:51.289Z,8.76
2022-12-29T16:43:23.323Z,8.72
2022-12-29T16:45:54.171Z,8.70
2022-12-29T16:48:25.182Z,8.64
2022-12-29T16:51:01.565Z,8.68
2022-12-29T16:53:33.303Z,8.66
2022-12-29T16:56:04.491Z,8.65
2022-12-29T16:58:33.310Z,8.57
2022-12-29T17:01:01.525Z,8.48
2022-12-29T17:03:36.573Z,8.45
2022-12-29T17:06:04.169Z,8.53
2022-12-29T17:08:41.668Z,8.52
2022-12-29T17:11:59.355Z,8.60
2022-12-29T17:14:53.705Z,8.62
2022-12-29T17:17:40.766Z,8.63
2022-12-29T17:20:29.486Z,8.63
2022-12-29T17:22:58.166Z,8.66
2022-12-29T17:25:37.832Z,8.66
2022-12-29T17:28:08.654Z,8.62
2022-12-29T17:30:36.218Z,8.52
2022-12-29T17:33:10.659Z,8.53
2022-12-29T17:35:38.088Z,8.50
2022-12-29T17:38:21.714Z,8.50
2022-12-29T17:40:49.218Z,8.47
2022-12-29T17:43:17.343Z,8.44
2022-12-29T17:45:49.674Z,8.39
2022-12-29T17:48:18.989Z,8.31
2022-12-29T17:50:49.746Z,8.35
2022-12-29T17:53:23.197Z,8.30
2022-12-29T17:55:50.908Z,8.30
2022-12-29T17:58:19.756Z,8.37
2022-12-29T18:00:49.111Z,8.40
2022-12-29T18:03:19.942Z,8.38
2022-12-29T18:05:47.729Z,8.39
2022-12-29T18:08:15.269Z,8.33
2022-12-29T18:10:43.418Z,8.28
2022-12-29T18:13:21.367Z,8.28
2022-12-29T18:15:48.933Z,8.24
2022-12-29T18:18:19.439Z,8.35
2022-12-29T18:20:48.721Z,8.34
2022-12-29T18:23:21.038Z,8.40
2022-12-29T18:26:00.229Z,8.33
2022-12-29T18:28:28.143Z,8.44
2022-12-29T18:31:01.266Z,8.40
2022-12-29T18:33:29.915Z,8.37
2022-12-29T18:36:06.439Z,8.42
2022-12-29T18:38:33.818Z,8.35
2022-12-29T18:41:01.252Z,8.27
2022-12-29T18:43:28.668Z,8.23
2022-12-29T18:45:56.226Z,8.23
2022-12-29T18:48:23.806Z,8.29
2022-12-29T18:50:51.995Z,8.22
2022-12-29T18:53:22.350Z,8.21
2022-12-29T18:55:50.855Z,8.21
2022-12-29T18:58:18.970Z,8.21
2022-12-29T19:00:47.040Z,8.17
2022-12-29T19:03:17.389Z,8.14
2022-12-29T19:05:49.692Z,8.15
2022-12-29T19:08:21.478Z,8.16
2022-12-29T19:10:49.218Z,8.10
2022-12-29T19:13:20.047Z,8.12
2022-12-29T19:15:47.912Z,8.14
2022-12-29T19:21:08.463Z,8.11
2022-12-29T19:23:35.884Z,8.13
2022-12-29T19:26:03.286Z,8.03
2022-12-29T19:28:30.656Z,8.11
2022-12-29T19:31:02.717Z,8.15
2022-12-29T19:33:30.277Z,8.09
2022-12-29T19:36:02.063Z,8.12
2022-12-29T19:38:29.941Z,8.14
2022-12-29T19:40:57.609Z,8.14
2022-12-29T19:43:24.965Z,7.99
2022-12-29T19:45:53.505Z,8.00
2022-12-29T19:48:21.345Z,7.99
2022-12-29T19:50:48.760Z,8.00
2022-12-29T19:53:16.199Z,8.01
2022-12-29T19:55:47.209Z,7.89
2022-12-29T19:58:15.292Z,7.85
2022-12-29T20:00:43.578Z,7.75
2022-12-29T20:03:11.567Z,7.84
2022-12-29T20:05:40.242Z,7.87
2022-12-29T20:08:07.619Z,7.80
2022-12-29T20:10:34.943Z,7.87
2022-12-29T20:13:04.438Z,7.92
2022-12-29T20:15:32.147Z,7.96
2022-12-29T20:18:13.047Z,7.99
2022-12-29T20:20:42.327Z,7.98
2022-12-29T20:23:09.728Z,8.04
2022-12-29T20:25:45.913Z,7.99
2022-12-29T20:28:14.835Z,7.97
2022-12-29T20:30:42.899Z,7.95
2022-12-29T20:33:10.351Z,7.96
2022-12-29T20:35:37.906Z,7.96
2022-12-29T20:38:05.388Z,8.04
2022-12-29T20:40:32.788Z,8.01
2022-12-29T20:43:00.166Z,8.07
2022-12-29T20:45:27.560Z,8.10
2022-12-29T20:47:54.955Z,8.11
2022-12-29T20:50:22.296Z,8.02
2022-12-29T20:52:49.689Z,7.97
2022-12-29T20:55:17.078Z,7.89
2022-12-29T20:58:22.027Z,7.93
2022-12-29T21:00:33.043Z,8.00
2022-12-29T21:03:01.331Z,7.95
2022-12-29T21:05:29.677Z,7.91
2022-12-29T21:07:59.639Z,7.82
2022-12-29T21:10:27.178Z,7.84
2022-12-29T21:12:54.633Z,7.86
2022-12-29T21:15:22.564Z,7.81
2022-12-29T21:17:50.039Z,7.78
2022-12-29T21:20:29.765Z,7.83
2022-12-29T21:23:00.045Z,7.75
2022-12-29T21:25:37.240Z,7.80
2022-12-29T21:28:12.320Z,7.62
2022-12-29T21:30:41.588Z,7.80
2022-12-29T21:33:09.089Z,7.85
2022-12-29T21:35:38.807Z,7.91
2022-12-29T21:38:07.870Z,7.80
2022-12-29T21:40:36.858Z,7.84
2022-12-29T21:43:05.211Z,7.78
2022-12-29T21:45:34.159Z,7.78
2022-12-29T21:48:21.147Z,7.79
2022-12-29T21:51:11.872Z,7.73
2022-12-29T21:53:44.724Z,7.71
2022-12-29T21:56:14.795Z,7.86
2022-12-29T21:59:03.649Z,7.78
2022-12-29T22:01:51.621Z,7.75
2022-12-29T22:04:42.872Z,7.78
2022-12-29T22:07:31.294Z,7.74
2022-12-29T22:10:17.533Z,7.70
2022-12-29T22:13:00.691Z,7.64
2022-12-29T22:15:31.192Z,7.74
2022-12-29T22:17:59.355Z,7.72
2022-12-29T22:20:30.232Z,7.61
2022-12-29T22:22:57.915Z,7.57
2022-12-29T22:25:26.017Z,7.60
2022-12-29T22:27:58.945Z,7.65
2022-12-29T22:30:28.141Z,7.61
2022-12-29T22:32:57.476Z,7.67
2022-12-29T22:35:25.104Z,7.58
2022-12-29T22:37:53.092Z,7.53
2022-12-29T22:40:20.638Z,7.58
2022-12-29T22:42:48.173Z,7.48
2022-12-29T22:45:15.570Z,7.54
2022-12-29T22:47:42.951Z,7.54
2022-12-29T22:50:10.482Z,7.49
2022-12-29T22:52:37.920Z,7.46
2022-12-29T22:55:07.249Z,7.49
2022-12-29T22:57:35.835Z,7.55
2022-12-29T23:00:08.276Z,7.55
2022-12-29T23:02:36.334Z,7.48
2022-12-29T23:05:05.577Z,7.51
2022-12-29T23:07:35.181Z,7.47
2022-12-29T23:10:04.428Z,7.49
2022-12-29T23:12:32.338Z,7.44
2022-12-29T23:14:59.756Z,7.43
2022-12-29T23:17:27.565Z,7.37
2022-12-29T23:19:54.959Z,7.41
2022-12-29T23:22:23.104Z,7.53
2022-12-29T23:24:50.639Z,7.50
2022-12-29T23:27:18.132Z,7.58
2022-12-29T23:29:45.590Z,7.57
2022-12-29T23:32:12.989Z,7.50
2022-12-29T23:34:40.359Z,7.46
2022-12-29T23:37:07.815Z,7.43
2022-12-29T23:39:35.229Z,7.58
2022-12-29T23:42:02.664Z,7.61
2022-12-29T23:44:30.037Z,7.61
2022-12-29T23:46:57.466Z,7.58
2022-12-29T23:49:24.861Z,7.48
2022-12-29T23:51:52.251Z,7.41
2022-12-29T23:54:19.569Z,7.39
2022-12-29T23:56:46.941Z,7.44
2022-12-29T23:59:14.356Z,7.44
